INFORMAÇÕES DO AERODROMO
Icao Aerodromo KHRL Nome do Aerodromo Valley International Airport Cidade Harlingen
Código GPS KHRL Elevação Média 36 ft Tipo de Aerodromo Aeroporto Médio Porte

INFORMAÇÃO DE PISTA
Pista 13 Comprimento da Pista 7257 ft Largura da Pista 150 ft
Elevação da Pista 34 ft Distância de Area de Escape da Pista 0 ft Orientação da Pista 136
Pista 31 Comprimento da Pista 7257 ft Largura da Pista 150 ft
Elevação da Pista 36 ft Distância de Area de Escape da Pista 0 ft Orientação da Pista 316
Pista 17L Comprimento da Pista 5949 ft Largura da Pista 150 ft
Elevação da Pista 34 ft Distância de Area de Escape da Pista 0 ft Orientação da Pista 181
Pista 35R Comprimento da Pista 5949 ft Largura da Pista 150 ft
Elevação da Pista 35 ft Distância de Area de Escape da Pista 190 ft Orientação da Pista 1
Pista 17R Comprimento da Pista 8301 ft Largura da Pista 150 ft
Elevação da Pista 34 ft Distância de Area de Escape da Pista 0 ft Orientação da Pista 181
Pista 35L Comprimento da Pista 8301 ft Largura da Pista 150 ft
Elevação da Pista 36 ft Distância de Area de Escape da Pista 0 ft Orientação da Pista 1

FREQUÊNCIAS DO AERODROMO
Tipo A/D Nome APP/DEP Frequência 120.7 MHZ
Tipo ATIS Nome ATIS Frequência 124.85 MHZ
Tipo CTAF Nome CTAF Frequência 119.3 MHZ
Tipo GND Nome GND Frequência 121.7 MHZ
Tipo RDO Nome SAN ANGELO Frequência 122.35 MHZ
Tipo TWR Nome TWR Frequência 119.3 MHZ
Tipo UNIC Nome UNICOM Frequência 122.95 MHZ

INFORMAÇÕES DE NAVEGAÇÃO PRÓXIMO AO AERODROMO
Tipo NDB Nome Sebas Frequência 338 KHZ
Tipo VOR-DME Nome Harlingen Frequência 109200 KHZ

Informações de Meteorologia(METAR atual)
METAR DE KHRL
ADDS - METARS form results

(0949 UTC 26 April 2018)
Data provider http://aviationweather.gov/adds/metars/
 
METAR text: KHRL 260852Z AUTO 33005KT 10SM FEW029 18/18 A2997 RMK AO2 SLP148 T01830178 58005
Conditions at: KHRL (HARLINGEN , TX, US) observed 0852 UTC 26 April 2018
Temperature: 18.3°C (65°F)
Dewpoint: 17.8°C (64°F) [RH = 97%]
Pressure (altimeter): 29.97 inches Hg (1015.0 mb)
[Sea-level pressure: 1014.8 mb]
Winds: from the NNW (330 degrees) at 6 MPH (5 knots; 2.6 m/s)
Visibility: 10 or more miles (16+ km)
Ceiling: at least 12,000 feet AGL
Clouds: few clouds at 2900 feet AGL
Weather: automated observation with no human augmentation;
there may or may not be significant weather present at this time

Forecast for: KHRL (HARLINGEN , TX, US)
Text: KHRL 260525Z 2606/2706 17010KT P6SM SCT030
Forecast period: 0600 to 0700 UTC 26 April 2018
Forecast type: FROM: standard forecast or significant change
Winds: from the S (170 degrees) at 12 MPH (10 knots; 5.2 m/s)
Visibility: 6 or more miles (10+ km)
Clouds: scattered clouds at 3000 feet AGL
Weather: no significant weather forecast for this period
Forecast for: KHRL (HARLINGEN , TX, US)
Text: KHRL 260525Z 2606/2706 17010KT P6SM SCT030
Forecast period: 0600 to 0700 UTC 26 April 2018
Forecast type: FROM: standard forecast or significant change
Winds: from the S (170 degrees) at 12 MPH (10 knots; 5.2 m/s)
Visibility: 6 or more miles (10+ km)
Clouds: scattered clouds at 3000 feet AGL
Weather: no significant weather forecast for this period
Forecast for: KHRL (HARLINGEN , TX, US)
Text: KHRL 260525Z 2606/2706 17010KT P6SM SCT030
Forecast period: 0700 to 1300 UTC 26 April 2018
Forecast type: FROM: standard forecast or significant change
Winds: variable direction winds at 3 MPH (3 knots; 1.6 m/s)
Visibility: 6 or more miles (10+ km)
Clouds: clear skies
Weather: no significant weather forecast for this period
Forecast for: KHRL (HARLINGEN , TX, US)
Text: KHRL 260525Z 2606/2706 17010KT P6SM SCT030
Forecast period: 0700 to 1300 UTC 26 April 2018
Forecast type: FROM: standard forecast or significant change
Winds: variable direction winds at 3 MPH (3 knots; 1.6 m/s)
Visibility: 6 or more miles (10+ km)
Clouds: clear skies
Weather: no significant weather forecast for this period
Forecast for: KHRL (HARLINGEN , TX, US)
Text: KHRL 260525Z 2606/2706 17010KT P6SM SCT030
Forecast period: 1300 to 1800 UTC 26 April 2018
Forecast type: FROM: standard forecast or significant change
Winds: from the NNE (30 degrees) at 9 MPH (8 knots; 4.2 m/s)
Visibility: 6 or more miles (10+ km)
Ceiling: 4000 feet AGL
Clouds: broken clouds at 4000 feet AGL
Weather: no significant weather forecast for this period
Forecast for: KHRL (HARLINGEN , TX, US)
Text: KHRL 260525Z 2606/2706 17010KT P6SM SCT030
Forecast period: 1300 to 1800 UTC 26 April 2018
Forecast type: FROM: standard forecast or significant change
Winds: from the NNE (30 degrees) at 9 MPH (8 knots; 4.2 m/s)
Visibility: 6 or more miles (10+ km)
Ceiling: 4000 feet AGL
Clouds: broken clouds at 4000 feet AGL
Weather: no significant weather forecast for this period
Forecast for: KHRL (HARLINGEN , TX, US)
Text: KHRL 260525Z 2606/2706 17010KT P6SM SCT030
Forecast period: 1800 UTC 26 April 2018 to 0100 UTC 27 April 2018
Forecast type: FROM: standard forecast or significant change
Winds: from the ENE (70 degrees) at 9 MPH (8 knots; 4.2 m/s)
Visibility: 6 or more miles (10+ km)
Clouds: scattered clouds at 4000 feet AGL
Weather: no significant weather forecast for this period
Forecast for: KHRL (HARLINGEN , TX, US)
Text: KHRL 260525Z 2606/2706 17010KT P6SM SCT030
Forecast period: 1800 UTC 26 April 2018 to 0100 UTC 27 April 2018
Forecast type: FROM: standard forecast or significant change
Winds: from the ENE (70 degrees) at 9 MPH (8 knots; 4.2 m/s)
Visibility: 6 or more miles (10+ km)
Clouds: scattered clouds at 4000 feet AGL
Weather: no significant weather forecast for this period
Forecast for: KHRL (HARLINGEN , TX, US)
Text: KHRL 260525Z 2606/2706 17010KT P6SM SCT030
Forecast period: 0100 to 0600 UTC 27 April 2018
Forecast type: FROM: standard forecast or significant change
Winds: from the E (100 degrees) at 6 MPH (5 knots; 2.6 m/s)
Visibility: 6 or more miles (10+ km)
Clouds: scattered clouds at 3000 feet AGL
Weather: no significant weather forecast for this period
Forecast for: KHRL (HARLINGEN , TX, US)
Text: KHRL 260525Z 2606/2706 17010KT P6SM SCT030
Forecast period: 0100 to 0600 UTC 27 April 2018
Forecast type: FROM: standard forecast or significant change
Winds: from the E (100 degrees) at 6 MPH (5 knots; 2.6 m/s)
Visibility: 6 or more miles (10+ km)
Clouds: scattered clouds at 3000 feet AGL
Weather: no significant weather forecast for this period

MAPA DO AERODROMO


Desenvolvido por Virtual Airlines Manager




Modificado por Servidor Brasil Amigos